sensor_id;sensor_type;location;lat;lon;timestamp;pressure;altitude;pressure_sealevel;temperature;humidity
59190;BME280;50749;51.636;4.948;2023-02-17T00:00:12;102022.84;;;17.23;53.32
59190;BME280;50749;51.636;4.948;2023-02-17T00:02:58;102021.50;;;17.21;53.16
59190;BME280;50749;51.636;4.948;2023-02-17T00:05:26;102014.03;;;17.21;53.23
59190;BME280;50749;51.636;4.948;2023-02-17T00:07:52;102006.91;;;17.20;53.35
59190;BME280;50749;51.636;4.948;2023-02-17T00:10:18;102006.91;;;17.20;53.33
59190;BME280;50749;51.636;4.948;2023-02-17T00:12:44;102017.94;;;17.20;53.12
59190;BME280;50749;51.636;4.948;2023-02-17T00:15:10;102020.38;;;17.22;53.48
59190;BME280;50749;51.636;4.948;2023-02-17T00:17:35;102016.31;;;17.19;53.21
59190;BME280;50749;51.636;4.948;2023-02-17T00:20:02;102019.06;;;17.19;52.90
59190;BME280;50749;51.636;4.948;2023-02-17T00:22:28;102022.31;;;17.21;53.23
59190;BME280;50749;51.636;4.948;2023-02-17T00:24:54;102010.78;;;17.19;53.07
59190;BME280;50749;51.636;4.948;2023-02-17T00:27:19;102001.69;;;17.19;53.28
59190;BME280;50749;51.636;4.948;2023-02-17T00:29:45;102009.97;;;17.19;53.36
59190;BME280;50749;51.636;4.948;2023-02-17T00:32:11;102008.34;;;17.18;53.36
59190;BME280;50749;51.636;4.948;2023-02-17T00:34:37;102000.06;;;17.18;53.19
59190;BME280;50749;51.636;4.948;2023-02-17T00:37:03;101996.50;;;17.17;52.96
59190;BME280;50749;51.636;4.948;2023-02-17T00:39:29;101989.00;;;17.18;53.16
59190;BME280;50749;51.636;4.948;2023-02-17T00:41:55;101993.72;;;17.17;53.01
59190;BME280;50749;51.636;4.948;2023-02-17T00:44:23;101994.53;;;17.18;53.16
59190;BME280;50749;51.636;4.948;2023-02-17T00:46:49;101987.06;;;17.18;52.96
59190;BME280;50749;51.636;4.948;2023-02-17T00:49:24;101991.28;;;17.16;52.92
59190;BME280;50749;51.636;4.948;2023-02-17T00:51:50;101993.25;;;17.15;53.32
59190;BME280;50749;51.636;4.948;2023-02-17T00:54:17;102009.81;;;17.15;53.30
59190;BME280;50749;51.636;4.948;2023-02-17T00:56:43;102001.84;;;17.14;53.09
59190;BME280;50749;51.636;4.948;2023-02-17T00:59:09;102000.22;;;17.13;53.10
59190;BME280;50749;51.636;4.948;2023-02-17T01:01:36;101999.41;;;17.12;53.27
59190;BME280;50749;51.636;4.948;2023-02-17T01:04:03;101990.31;;;17.12;53.26
59190;BME280;50749;51.636;4.948;2023-02-17T01:06:31;101985.91;;;17.11;52.86
59190;BME280;50749;51.636;4.948;2023-02-17T01:08:59;101989.16;;;17.13;53.34
59190;BME280;50749;51.636;4.948;2023-02-17T01:11:27;101985.59;;;17.12;53.33
59190;BME280;50749;51.636;4.948;2023-02-17T01:13:55;101996.66;;;17.12;53.34
59190;BME280;50749;51.636;4.948;2023-02-17T01:16:23;101987.88;;;17.10;53.24
59190;BME280;50749;51.636;4.948;2023-02-17T01:18:50;101998.59;;;17.12;53.32
59190;BME280;50749;51.636;4.948;2023-02-17T01:21:24;101997.78;;;17.11;52.98
59190;BME280;50749;51.636;4.948;2023-02-17T01:23:53;101989.50;;;17.11;53.26
59190;BME280;50749;51.636;4.948;2023-02-17T01:26:22;101988.38;;;17.12;52.96
59190;BME280;50749;51.636;4.948;2023-02-17T01:28:49;101993.88;;;17.12;53.18
59190;BME280;50749;51.636;4.948;2023-02-17T01:31:15;101998.59;;;17.12;53.12
59190;BME280;50749;51.636;4.948;2023-02-17T01:33:42;101994.22;;;17.11;53.27
59190;BME280;50749;51.636;4.948;2023-02-17T01:36:10;102002.19;;;17.12;52.90
59190;BME280;50749;51.636;4.948;2023-02-17T01:38:37;101993.09;;;17.12;52.91
59190;BME280;50749;51.636;4.948;2023-02-17T01:41:03;101989.16;;;17.13;53.27
59190;BME280;50749;51.636;4.948;2023-02-17T01:43:30;102001.69;;;17.10;52.81
59190;BME280;50749;51.636;4.948;2023-02-17T01:45:58;101998.09;;;17.09;53.24
59190;BME280;50749;51.636;4.948;2023-02-17T01:48:41;102005.59;;;17.09;52.86
59190;BME280;50749;51.636;4.948;2023-02-17T01:51:14;102002.81;;;17.09;53.34
59190;BME280;50749;51.636;4.948;2023-02-17T01:56:12;102012.25;;;17.08;53.04
59190;BME280;50749;51.636;4.948;2023-02-17T01:58:41;102003.97;;;17.08;53.25
59190;BME280;50749;51.636;4.948;2023-02-17T02:01:10;102001.53;;;17.06;53.22
59190;BME280;50749;51.636;4.948;2023-02-17T02:03:38;101998.78;;;17.06;53.17
59190;BME280;50749;51.636;4.948;2023-02-17T02:06:08;101992.94;;;17.08;53.04
59190;BME280;50749;51.636;4.948;2023-02-17T02:09:10;101982.69;;;17.08;52.91
59190;BME280;50749;51.636;4.948;2023-02-17T02:11:38;101986.09;;;17.05;52.99
59190;BME280;50749;51.636;4.948;2023-02-17T02:14:06;101980.88;;;17.04;53.05
59190;BME280;50749;51.636;4.948;2023-02-17T02:17:07;101973.41;;;17.04;52.91
59190;BME280;50749;51.636;4.948;2023-02-17T02:24:58;101965.78;;;17.01;52.94
59190;BME280;50749;51.636;4.948;2023-02-17T02:27:33;101963.34;;;17.00;52.91
59190;BME280;50749;51.636;4.948;2023-02-17T02:32:55;101968.03;;;16.99;53.19
59190;BME280;50749;51.636;4.948;2023-02-17T02:38:44;101945.94;;;16.99;53.20
59190;BME280;50749;51.636;4.948;2023-02-17T02:41:18;101927.75;;;16.98;53.20
59190;BME280;50749;51.636;4.948;2023-02-17T02:43:47;101917.81;;;16.97;53.20
59190;BME280;50749;51.636;4.948;2023-02-17T02:46:14;101914.25;;;16.97;53.38
59190;BME280;50749;51.636;4.948;2023-02-17T02:48:40;101929.19;;;16.96;53.13
59190;BME280;50749;51.636;4.948;2023-02-17T02:56:17;101911.81;;;16.95;52.87
59190;BME280;50749;51.636;4.948;2023-02-17T02:59:04;101918.94;;;16.96;52.88
59190;BME280;50749;51.636;4.948;2023-02-17T03:01:49;101913.44;;;16.96;53.14
59190;BME280;50749;51.636;4.948;2023-02-17T03:04:18;101925.63;;;16.95;53.04
59190;BME280;50749;51.636;4.948;2023-02-17T03:07:01;101923.69;;;16.96;52.89
59190;BME280;50749;51.636;4.948;2023-02-17T03:09:30;101921.72;;;16.96;52.96
59190;BME280;50749;51.636;4.948;2023-02-17T03:11:57;101913.78;;;16.95;53.16
59190;BME280;50749;51.636;4.948;2023-02-17T03:14:23;101918.16;;;16.96;52.74
59190;BME280;50749;51.636;4.948;2023-02-17T03:16:50;101911.81;;;16.95;52.77
59190;BME280;50749;51.636;4.948;2023-02-17T03:19:19;101909.06;;;16.95;53.30
59190;BME280;50749;51.636;4.948;2023-02-17T03:24:14;101910.19;;;16.94;52.78
59190;BME280;50749;51.636;4.948;2023-02-17T03:26:40;101904.97;;;16.93;52.86
59190;BME280;50749;51.636;4.948;2023-02-17T03:29:05;101901.41;;;16.92;53.27
59190;BME280;50749;51.636;4.948;2023-02-17T03:31:31;101877.38;;;16.93;52.98
59190;BME280;50749;51.636;4.948;2023-02-17T03:33:58;101883.22;;;16.91;52.85
59190;BME280;50749;51.636;4.948;2023-02-17T03:36:24;101875.44;;;16.93;53.17
59190;BME280;50749;51.636;4.948;2023-02-17T03:38:49;101882.09;;;16.92;53.08
59190;BME280;50749;51.636;4.948;2023-02-17T03:41:16;101881.28;;;16.92;53.27
59190;BME280;50749;51.636;4.948;2023-02-17T03:43:41;101889.56;;;16.92;53.03
59190;BME280;50749;51.636;4.948;2023-02-17T03:46:11;101895.09;;;16.92;53.21
59190;BME280;50749;51.636;4.948;2023-02-17T03:48:37;101889.91;;;16.90;53.20
59190;BME280;50749;51.636;4.948;2023-02-17T03:51:12;101892.66;;;16.90;52.98
59190;BME280;50749;51.636;4.948;2023-02-17T03:53:38;101895.41;;;16.90;53.15
59190;BME280;50749;51.636;4.948;2023-02-17T03:56:05;101888.25;;;16.89;53.34
59190;BME280;50749;51.636;4.948;2023-02-17T03:58:31;101884.69;;;16.88;53.17
59190;BME280;50749;51.636;4.948;2023-02-17T04:00:57;101884.69;;;16.88;53.07
59190;BME280;50749;51.636;4.948;2023-02-17T04:03:23;101886.66;;;16.88;52.99
59190;BME280;50749;51.636;4.948;2023-02-17T04:05:49;101891.34;;;16.87;53.15
59190;BME280;50749;51.636;4.948;2023-02-17T04:08:14;101886.97;;;16.86;53.27
59190;BME280;50749;51.636;4.948;2023-02-17T04:10:40;101889.72;;;16.86;53.18
59190;BME280;50749;51.636;4.948;2023-02-17T04:13:06;101886.13;;;16.86;52.99
59190;BME280;50749;51.636;4.948;2023-02-17T04:15:32;101890.06;;;16.85;52.93
59190;BME280;50749;51.636;4.948;2023-02-17T04:17:58;101897.69;;;16.88;53.36
59190;BME280;50749;51.636;4.948;2023-02-17T04:20:24;101887.13;;;16.90;53.25
59190;BME280;50749;51.636;4.948;2023-02-17T04:22:50;101885.00;;;16.96;53.00
59190;BME280;50749;51.636;4.948;2023-02-17T04:25:16;101885.66;;;17.01;53.19
59190;BME280;50749;51.636;4.948;2023-02-17T04:27:42;101883.22;;;17.08;52.96
59190;BME280;50749;51.636;4.948;2023-02-17T04:30:08;101892.63;;;17.16;53.15
59190;BME280;50749;51.636;4.948;2023-02-17T04:32:34;101899.28;;;17.24;52.92
59190;BME280;50749;51.636;4.948;2023-02-17T04:35:00;101907.88;;;17.31;52.95
59190;BME280;50749;51.636;4.948;2023-02-17T04:37:25;101912.91;;;17.38;53.08
59190;BME280;50749;51.636;4.948;2023-02-17T04:39:51;101921.84;;;17.43;52.66
59190;BME280;50749;51.636;4.948;2023-02-17T04:42:17;101916.16;;;17.49;53.15
59190;BME280;50749;51.636;4.948;2023-02-17T04:44:43;101913.22;;;17.54;53.01
59190;BME280;50749;51.636;4.948;2023-02-17T04:47:09;101901.97;;;17.59;52.79
59190;BME280;50749;51.636;4.948;2023-02-17T04:49:35;101904.56;;;17.64;52.74
59190;BME280;50749;51.636;4.948;2023-02-17T04:52:00;101899.97;;;17.68;52.89
59190;BME280;50749;51.636;4.948;2023-02-17T04:54:26;101893.94;;;17.75;52.77
59190;BME280;50749;51.636;4.948;2023-02-17T04:56:52;101901.56;;;17.78;52.81
59190;BME280;50749;51.636;4.948;2023-02-17T04:59:18;101901.84;;;17.85;52.48
59190;BME280;50749;51.636;4.948;2023-02-17T05:01:44;101893.75;;;17.89;52.42
59190;BME280;50749;51.636;4.948;2023-02-17T05:04:10;101880.88;;;17.93;52.70
59190;BME280;50749;51.636;4.948;2023-02-17T05:06:35;101888.97;;;17.98;52.34
59190;BME280;50749;51.636;4.948;2023-02-17T05:09:02;101887.16;;;18.02;52.26
59190;BME280;50749;51.636;4.948;2023-02-17T05:11:27;101869.91;;;18.05;52.10
59190;BME280;50749;51.636;4.948;2023-02-17T05:13:53;101866.81;;;18.07;52.48
59190;BME280;50749;51.636;4.948;2023-02-17T05:16:19;101879.63;;;18.11;52.16
59190;BME280;50749;51.636;4.948;2023-02-17T05:18:45;101871.81;;;18.13;52.56
59190;BME280;50749;51.636;4.948;2023-02-17T05:21:11;101884.19;;;18.16;52.20
59190;BME280;50749;51.636;4.948;2023-02-17T05:23:37;101891.00;;;18.18;52.23
59190;BME280;50749;51.636;4.948;2023-02-17T05:26:07;101904.97;;;18.22;52.15
59190;BME280;50749;51.636;4.948;2023-02-17T05:28:34;101902.38;;;18.26;51.97
59190;BME280;50749;51.636;4.948;2023-02-17T05:31:01;101902.00;;;18.27;52.39
59190;BME280;50749;51.636;4.948;2023-02-17T05:33:27;101903.31;;;18.30;52.02
59190;BME280;50749;51.636;4.948;2023-02-17T05:35:52;101897.09;;;18.33;52.01
59190;BME280;50749;51.636;4.948;2023-02-17T05:38:18;101891.69;;;18.36;52.04
59190;BME280;50749;51.636;4.948;2023-02-17T05:40:44;101879.97;;;18.40;51.87
59190;BME280;50749;51.636;4.948;2023-02-17T05:43:10;101887.59;;;18.43;52.08
59190;BME280;50749;51.636;4.948;2023-02-17T05:45:36;101891.16;;;18.43;52.38
59190;BME280;50749;51.636;4.948;2023-02-17T05:48:02;101897.72;;;18.38;52.13
59190;BME280;50749;51.636;4.948;2023-02-17T05:50:28;101894.66;;;18.31;52.34
59190;BME280;50749;51.636;4.948;2023-02-17T05:52:54;101890.78;;;18.24;52.58
59190;BME280;50749;51.636;4.948;2023-02-17T05:55:20;101896.34;;;18.24;52.98
59190;BME280;50749;51.636;4.948;2023-02-17T05:57:47;101890.78;;;18.24;52.54
59190;BME280;50749;51.636;4.948;2023-02-17T06:00:13;101891.13;;;18.22;52.56
59190;BME280;50749;51.636;4.948;2023-02-17T06:02:40;101886.41;;;18.23;52.65
59190;BME280;50749;51.636;4.948;2023-02-17T06:05:06;101869.81;;;18.23;52.70
59190;BME280;50749;51.636;4.948;2023-02-17T06:07:33;101877.78;;;18.24;52.77
59190;BME280;50749;51.636;4.948;2023-02-17T06:09:58;101876.16;;;18.23;53.08
59190;BME280;50749;51.636;4.948;2023-02-17T06:12:24;101861.31;;;18.28;52.90
59190;BME280;50749;51.636;4.948;2023-02-17T06:14:50;101856.59;;;18.28;53.17
59190;BME280;50749;51.636;4.948;2023-02-17T06:17:16;101851.84;;;18.29;53.19
59190;BME280;50749;51.636;4.948;2023-02-17T06:19:42;101857.38;;;18.29;52.85
59190;BME280;50749;51.636;4.948;2023-02-17T06:22:08;101851.50;;;18.30;53.25
59190;BME280;50749;51.636;4.948;2023-02-17T06:24:33;101860.78;;;18.34;53.33
59190;BME280;50749;51.636;4.948;2023-02-17T06:27:00;101859.63;;;18.35;52.60
59190;BME280;50749;51.636;4.948;2023-02-17T06:29:26;101852.94;;;18.36;52.54
59190;BME280;50749;51.636;4.948;2023-02-17T06:31:53;101858.81;;;18.35;52.87
59190;BME280;50749;51.636;4.948;2023-02-17T06:34:19;101839.44;;;18.35;53.14
59190;BME280;50749;51.636;4.948;2023-02-17T06:36:45;101839.56;;;18.38;52.84
59190;BME280;50749;51.636;4.948;2023-02-17T06:39:10;101848.69;;;18.39;52.90
59190;BME280;50749;51.636;4.948;2023-02-17T06:41:36;101848.69;;;18.39;52.97
59190;BME280;50749;51.636;4.948;2023-02-17T06:44:02;101852.28;;;18.40;52.92
59190;BME280;50749;51.636;4.948;2023-02-17T06:46:29;101845.91;;;18.39;53.02
59190;BME280;50749;51.636;4.948;2023-02-17T06:48:54;101851.44;;;18.39;52.72
59190;BME280;50749;51.636;4.948;2023-02-17T06:51:20;101854.91;;;18.36;52.89
59190;BME280;50749;51.636;4.948;2023-02-17T06:53:46;101860.91;;;18.38;52.80
59190;BME280;50749;51.636;4.948;2023-02-17T06:56:12;101860.91;;;18.38;52.76
59190;BME280;50749;51.636;4.948;2023-02-17T06:58:41;101855.03;;;18.40;53.40
59190;BME280;50749;51.636;4.948;2023-02-17T07:01:15;101861.06;;;18.42;53.46
59190;BME280;50749;51.636;4.948;2023-02-17T07:03:41;101860.25;;;18.41;53.35
59190;BME280;50749;51.636;4.948;2023-02-17T07:06:07;101861.38;;;18.40;53.08
59190;BME280;50749;51.636;4.948;2023-02-17T07:08:33;101858.63;;;18.40;53.01
59190;BME280;50749;51.636;4.948;2023-02-17T07:11:04;101854.59;;;18.37;53.15
59190;BME280;50749;51.636;4.948;2023-02-17T07:13:30;101852.16;;;18.36;53.08
59190;BME280;50749;51.636;4.948;2023-02-17T07:15:56;101857.69;;;18.36;53.36
59190;BME280;50749;51.636;4.948;2023-02-17T07:18:22;101848.06;;;18.33;53.07
59190;BME280;50749;51.636;4.948;2023-02-17T07:20:48;101860.78;;;18.34;53.13
59190;BME280;50749;51.636;4.948;2023-02-17T07:23:13;101860.78;;;18.34;53.37
59190;BME280;50749;51.636;4.948;2023-02-17T07:25:39;101851.97;;;18.32;53.01
59190;BME280;50749;51.636;4.948;2023-02-17T07:28:05;101858.34;;;18.33;53.63
59190;BME280;50749;51.636;4.948;2023-02-17T07:30:31;101858.34;;;18.33;53.34
59190;BME280;50749;51.636;4.948;2023-02-17T07:32:57;101843.69;;;18.32;53.23
59190;BME280;50749;51.636;4.948;2023-02-17T07:35:23;101848.41;;;18.32;53.28
59190;BME280;50749;51.636;4.948;2023-02-17T07:37:49;101853.16;;;18.31;53.45
59190;BME280;50749;51.636;4.948;2023-02-17T07:40:16;101839.31;;;18.31;53.16
59190;BME280;50749;51.636;4.948;2023-02-17T07:42:42;101842.41;;;18.30;53.43
59190;BME280;50749;51.636;4.948;2023-02-17T07:45:08;101840.31;;;18.27;53.36
59190;BME280;50749;51.636;4.948;2023-02-17T07:47:33;101849.78;;;18.26;53.51
59190;BME280;50749;51.636;4.948;2023-02-17T07:49:59;101836.59;;;18.23;53.45
59190;BME280;50749;51.636;4.948;2023-02-17T07:52:25;101855.47;;;18.20;53.39
59190;BME280;50749;51.636;4.948;2023-02-17T07:54:51;101853.06;;;18.19;53.85
59190;BME280;50749;51.636;4.948;2023-02-17T07:57:17;101860.53;;;18.18;53.71
59190;BME280;50749;51.636;4.948;2023-02-17T07:59:45;101865.59;;;18.16;53.92
59190;BME280;50749;51.636;4.948;2023-02-17T08:02:10;101847.69;;;18.14;53.69
59190;BME280;50749;51.636;4.948;2023-02-17T08:04:37;101862.72;;;18.13;53.82
59190;BME280;50749;51.636;4.948;2023-02-17T08:07:02;101863.03;;;18.11;54.13
59190;BME280;50749;51.636;4.948;2023-02-17T08:09:28;101862.56;;;18.09;54.04
59190;BME280;50749;51.636;4.948;2023-02-17T08:12:18;101864.03;;;18.07;54.29
59190;BME280;50749;51.636;4.948;2023-02-17T08:15:04;101855.59;;;18.03;54.07
59190;BME280;50749;51.636;4.948;2023-02-17T08:17:31;101856.41;;;18.04;53.85
59190;BME280;50749;51.636;4.948;2023-02-17T08:19:58;101864.22;;;18.01;54.17
59190;BME280;50749;51.636;4.948;2023-02-17T08:22:24;101878.38;;;18.00;54.11
59190;BME280;50749;51.636;4.948;2023-02-17T08:24:50;101886.69;;;18.00;54.08
59190;BME280;50749;51.636;4.948;2023-02-17T08:27:17;101891.44;;;17.99;53.69
59190;BME280;50749;51.636;4.948;2023-02-17T08:29:44;101887.03;;;17.98;53.75
59190;BME280;50749;51.636;4.948;2023-02-17T08:32:11;101880.06;;;17.92;54.15
59190;BME280;50749;51.636;4.948;2023-02-17T08:34:37;101888.03;;;17.94;54.09
59190;BME280;50749;51.636;4.948;2023-02-17T08:37:05;101890.31;;;17.92;54.13
59190;BME280;50749;51.636;4.948;2023-02-17T08:39:32;101897.00;;;17.91;53.70
59190;BME280;50749;51.636;4.948;2023-02-17T08:41:58;101898.13;;;17.90;53.99
59190;BME280;50749;51.636;4.948;2023-02-17T08:44:24;101900.44;;;17.88;54.15
59190;BME280;50749;51.636;4.948;2023-02-17T08:46:51;101896.84;;;17.87;53.94
59190;BME280;50749;51.636;4.948;2023-02-17T08:49:21;101893.25;;;17.87;53.78
59190;BME280;50749;51.636;4.948;2023-02-17T08:51:47;101895.53;;;17.85;54.02
59190;BME280;50749;51.636;4.948;2023-02-17T08:54:13;101907.72;;;17.83;54.14
59190;BME280;50749;51.636;4.948;2023-02-17T08:56:41;101904.47;;;17.81;53.96
59190;BME280;50749;51.636;4.948;2023-02-17T08:59:08;101904.94;;;17.83;54.08
59190;BME280;50749;51.636;4.948;2023-02-17T09:01:35;101918.31;;;17.81;54.20
59190;BME280;50749;51.636;4.948;2023-02-17T09:04:04;101927.44;;;17.82;54.10
59190;BME280;50749;51.636;4.948;2023-02-17T09:06:38;101931.34;;;17.81;54.24
59190;BME280;50749;51.636;4.948;2023-02-17T09:09:07;101933.13;;;17.77;53.90
59190;BME280;50749;51.636;4.948;2023-02-17T09:11:33;101927.59;;;17.77;54.09
59190;BME280;50749;51.636;4.948;2023-02-17T09:13:59;101929.56;;;17.76;53.84
59190;BME280;50749;51.636;4.948;2023-02-17T09:16:26;101918.03;;;17.74;54.13
59190;BME280;50749;51.636;4.948;2023-02-17T09:18:52;101913.13;;;17.71;54.16
59190;BME280;50749;51.636;4.948;2023-02-17T09:21:19;101930.06;;;17.70;54.25
59190;BME280;50749;51.636;4.948;2023-02-17T09:23:46;101939.53;;;17.69;53.89
59190;BME280;50749;51.636;4.948;2023-02-17T09:26:13;101924.88;;;17.68;53.93
59190;BME280;50749;51.636;4.948;2023-02-17T09:28:40;101927.63;;;17.68;54.07
59190;BME280;50749;51.636;4.948;2023-02-17T09:33:41;101916.56;;;17.68;53.96
59190;BME280;50749;51.636;4.948;2023-02-17T09:36:09;101944.22;;;17.68;54.09
59190;BME280;50749;51.636;4.948;2023-02-17T09:38:38;101953.03;;;17.70;54.04
59190;BME280;50749;51.636;4.948;2023-02-17T09:43:50;101948.63;;;17.69;53.78
59190;BME280;50749;51.636;4.948;2023-02-17T09:46:38;101945.38;;;17.67;53.91
59190;BME280;50749;51.636;4.948;2023-02-17T09:49:10;101938.22;;;17.66;53.96
59190;BME280;50749;51.636;4.948;2023-02-17T09:54:30;101932.22;;;17.64;53.57
59190;BME280;50749;51.636;4.948;2023-02-17T09:57:00;101951.56;;;17.64;54.02
59190;BME280;50749;51.636;4.948;2023-02-17T10:00:11;101957.41;;;17.62;53.95
59190;BME280;50749;51.636;4.948;2023-02-17T10:02:33;101951.41;;;17.60;53.64
59190;BME280;50749;51.636;4.948;2023-02-17T10:05:05;101956.63;;;17.62;53.74
59190;BME280;50749;51.636;4.948;2023-02-17T10:07:39;101949.44;;;17.61;53.50
59190;BME280;50749;51.636;4.948;2023-02-17T10:10:10;101953.34;;;17.60;53.86
59190;BME280;50749;51.636;4.948;2023-02-17T10:12:43;101961.63;;;17.60;53.64
59190;BME280;50749;51.636;4.948;2023-02-17T10:15:18;101961.16;;;17.58;53.94
59190;BME280;50749;51.636;4.948;2023-02-17T10:20:49;101965.56;;;17.59;53.78
59190;BME280;50749;51.636;4.948;2023-02-17T10:23:22;101965.56;;;17.59;53.85
59190;BME280;50749;51.636;4.948;2023-02-17T10:34:36;101970.63;;;17.57;53.56
59190;BME280;50749;51.636;4.948;2023-02-17T10:37:23;101965.75;;;17.54;53.46
59190;BME280;50749;51.636;4.948;2023-02-17T10:39:54;101979.25;;;17.55;53.64
59190;BME280;50749;51.636;4.948;2023-02-17T10:42:29;101990.28;;;17.55;53.34
59190;BME280;50749;51.636;4.948;2023-02-17T10:45:05;101994.19;;;17.54;53.53
59190;BME280;50749;51.636;4.948;2023-02-17T10:47:35;102008.81;;;17.55;53.49
59190;BME280;50749;51.636;4.948;2023-02-17T10:50:06;102028.50;;;17.53;53.71
59190;BME280;50749;51.636;4.948;2023-02-17T10:52:38;102022.16;;;17.53;53.43
59190;BME280;50749;51.636;4.948;2023-02-17T10:57:57;101988.50;;;17.51;53.82
59190;BME280;50749;51.636;4.948;2023-02-17T11:00:25;101997.28;;;17.53;53.52
59190;BME280;50749;51.636;4.948;2023-02-17T11:02:51;101988.19;;;17.52;53.70
59190;BME280;50749;51.636;4.948;2023-02-17T11:05:33;101990.16;;;17.52;53.52
59190;BME280;50749;51.636;4.948;2023-02-17T11:08:06;101989.00;;;17.53;53.89
59190;BME280;50749;51.636;4.948;2023-02-17T11:10:35;101981.84;;;17.52;53.87
59190;BME280;50749;51.636;4.948;2023-02-17T11:13:03;101970.78;;;17.52;53.92
59190;BME280;50749;51.636;4.948;2023-02-17T11:15:45;101969.97;;;17.51;53.77
59190;BME280;50749;51.636;4.948;2023-02-17T11:18:24;101968.03;;;17.52;53.75
59190;BME280;50749;51.636;4.948;2023-02-17T11:21:00;101969.16;;;17.51;53.68
59190;BME280;50749;51.636;4.948;2023-02-17T11:23:26;101958.56;;;17.53;53.77
59190;BME280;50749;51.636;4.948;2023-02-17T11:26:01;101953.03;;;17.53;53.70
59190;BME280;50749;51.636;4.948;2023-02-17T11:28:27;101953.03;;;17.53;53.46
59190;BME280;50749;51.636;4.948;2023-02-17T11:30:56;101954.69;;;17.54;53.84
59190;BME280;50749;51.636;4.948;2023-02-17T11:33:32;101961.34;;;17.53;53.47
59190;BME280;50749;51.636;4.948;2023-02-17T11:35:59;101964.91;;;17.53;53.57
59190;BME280;50749;51.636;4.948;2023-02-17T11:38:32;101951.59;;;17.55;53.94
59190;BME280;50749;51.636;4.948;2023-02-17T11:41:00;101956.28;;;17.55;53.73
59190;BME280;50749;51.636;4.948;2023-02-17T11:43:29;101959.88;;;17.55;54.07
59190;BME280;50749;51.636;4.948;2023-02-17T11:46:22;101983.94;;;17.55;53.82
59190;BME280;50749;51.636;4.948;2023-02-17T11:48:58;101988.66;;;17.54;53.88
59190;BME280;50749;51.636;4.948;2023-02-17T12:03:04;101981.00;;;17.51;54.12
59190;BME280;50749;51.636;4.948;2023-02-17T12:12:00;101991.75;;;17.53;54.24
59190;BME280;50749;51.636;4.948;2023-02-17T12:20:11;101985.41;;;17.52;54.36
59190;BME280;50749;51.636;4.948;2023-02-17T12:25:23;101993.56;;;17.49;54.21
59190;BME280;50749;51.636;4.948;2023-02-17T12:28:15;102001.00;;;17.48;54.30
59190;BME280;50749;51.636;4.948;2023-02-17T12:31:02;102020.03;;;17.50;54.05
59190;BME280;50749;51.636;4.948;2023-02-17T12:36:13;102012.91;;;17.49;54.12
59190;BME280;50749;51.636;4.948;2023-02-17T12:38:47;102016.81;;;17.48;54.17
59190;BME280;50749;51.636;4.948;2023-02-17T12:41:24;102019.56;;;17.48;54.44
59190;BME280;50749;51.636;4.948;2023-02-17T12:43:55;102035.34;;;17.47;53.96
59190;BME280;50749;51.636;4.948;2023-02-17T12:46:26;102036.97;;;17.48;54.07
59190;BME280;50749;51.636;4.948;2023-02-17T12:48:58;102025.56;;;17.50;54.49
59190;BME280;50749;51.636;4.948;2023-02-17T12:51:49;102035.34;;;17.47;54.14
59190;BME280;50749;51.636;4.948;2023-02-17T12:54:22;102031.75;;;17.46;54.64
59190;BME280;50749;51.636;4.948;2023-02-17T12:59:43;102041.19;;;17.45;54.42
59190;BME280;50749;51.636;4.948;2023-02-17T13:02:29;102042.00;;;17.46;54.47
59190;BME280;50749;51.636;4.948;2023-02-17T13:04:59;102043.97;;;17.45;54.38
59190;BME280;50749;51.636;4.948;2023-02-17T13:07:48;102036.31;;;17.42;54.18
59190;BME280;50749;51.636;4.948;2023-02-17T13:10:29;102038.75;;;17.44;54.17
59190;BME280;50749;51.636;4.948;2023-02-17T13:13:01;102062.84;;;17.43;54.25
59190;BME280;50749;51.636;4.948;2023-02-17T13:15:34;102049.00;;;17.43;54.45
59190;BME280;50749;51.636;4.948;2023-02-17T13:18:06;102060.88;;;17.44;54.39
59190;BME280;50749;51.636;4.948;2023-02-17T13:20:42;102070.28;;;17.43;54.44
59190;BME280;50749;51.636;4.948;2023-02-17T13:23:30;102064.44;;;17.44;54.32
59190;BME280;50749;51.636;4.948;2023-02-17T13:26:32;102083.00;;;17.44;54.60
59190;BME280;50749;51.636;4.948;2023-02-17T13:29:20;102074.38;;;17.45;54.62
59190;BME280;50749;51.636;4.948;2023-02-17T13:31:47;102067.69;;;17.46;54.52
59190;BME280;50749;51.636;4.948;2023-02-17T13:34:34;102069.00;;;17.49;54.22
59190;BME280;50749;51.636;4.948;2023-02-17T13:37:25;102069.97;;;17.53;54.20
59190;BME280;50749;51.636;4.948;2023-02-17T13:42:52;102079.09;;;17.54;54.53
59190;BME280;50749;51.636;4.948;2023-02-17T13:47:56;102097.63;;;17.53;54.50
59190;BME280;50749;51.636;4.948;2023-02-17T13:50:29;102092.91;;;17.54;54.39
59190;BME280;50749;51.636;4.948;2023-02-17T13:52:55;102094.84;;;17.53;54.72
59190;BME280;50749;51.636;4.948;2023-02-17T13:55:22;102083.47;;;17.55;54.47
59190;BME280;50749;51.636;4.948;2023-02-17T13:57:55;102074.38;;;17.54;54.49
59190;BME280;50749;51.636;4.948;2023-02-17T14:00:42;102069.81;;;17.58;54.20
59190;BME280;50749;51.636;4.948;2023-02-17T14:03:34;102068.50;;;17.64;53.92
59190;BME280;50749;51.636;4.948;2023-02-17T14:06:08;102080.25;;;17.70;53.93
59190;BME280;50749;51.636;4.948;2023-02-17T14:08:39;102088.38;;;17.75;53.89
59190;BME280;50749;51.636;4.948;2023-02-17T14:11:11;102104.47;;;17.82;53.75
59190;BME280;50749;51.636;4.948;2023-02-17T14:13:41;102098.25;;;17.85;53.87
59190;BME280;50749;51.636;4.948;2023-02-17T14:16:37;102090.66;;;17.91;53.96
59190;BME280;50749;51.636;4.948;2023-02-17T14:19:17;102096.50;;;17.98;54.01
59190;BME280;50749;51.636;4.948;2023-02-17T14:22:05;102068.16;;;18.01;53.55
59190;BME280;50749;51.636;4.948;2023-02-17T14:24:36;102057.59;;;18.03;53.50